Time;durP1;ratioP1;P1;durP2;ratioP2;P2;SDS_P1;SDS_P2;PMS_P1;PMS_P2;Temp;Humidity;BMP_temperature;BMP_pressure;BME280_temperature;BME280_humidity;BME280_pressure;Samples;Min_cycle;Max_cycle;Signal;HPM_P1;HPM_P2
2021/04/07 00:00:34;;;;;;;22.02;2.67;;;3.80;95.10;;;;;;5065836;28;20246;-74
2021/04/07 00:03:01;;;;;;;15.77;2.63;;;3.80;95.20;;;;;;5057901;28;20817;-74
2021/04/07 00:05:30;;;;;;;18.60;2.53;;;3.80;95.40;;;;;;5042153;28;20207;-74
2021/04/07 00:07:56;;;;;;;17.27;2.63;;;3.80;95.40;;;;;;5059442;28;20199;-74
2021/04/07 00:10:31;;;;;;;22.33;2.80;;;3.90;95.60;;;;;;5044264;28;20561;-74
2021/04/07 00:12:58;;;;;;;22.52;3.67;;;3.90;95.70;;;;;;5066300;28;20222;-74
2021/04/07 00:15:26;;;;;;;15.55;2.42;;;3.90;95.80;;;;;;5068175;28;20660;-74
2021/04/07 00:17:55;;;;;;;16.17;2.30;;;3.90;95.90;;;;;;5057614;28;20612;-73
2021/04/07 00:20:23;;;;;;;13.95;1.90;;;3.90;96.00;;;;;;5057341;28;20759;-73
2021/04/07 00:22:50;;;;;;;20.10;2.75;;;3.90;96.10;;;;;;5062858;28;20237;-74
2021/04/07 00:25:17;;;;;;;18.10;2.30;;;3.90;96.20;;;;;;5040099;28;20228;-75
2021/04/07 00:27:52;;;;;;;17.05;2.28;;;3.90;96.30;;;;;;5062839;28;20260;-74
2021/04/07 00:30:20;;;;;;;21.35;2.75;;;3.90;96.30;;;;;;5060501;28;20217;-75
2021/04/07 00:32:46;;;;;;;13.85;1.98;;;3.90;96.40;;;;;;5061283;28;20256;-74
2021/04/07 00:35:14;;;;;;;18.98;2.40;;;3.90;96.50;;;;;;5048837;28;20206;-75
2021/04/07 00:37:41;;;;;;;19.58;2.17;;;4.00;96.60;;;;;;5062103;28;20662;-74
2021/04/07 00:40:09;;;;;;;16.17;2.10;;;4.00;96.70;;;;;;5060125;28;20233;-74
2021/04/07 00:42:36;;;;;;;17.52;2.33;;;4.00;96.80;;;;;;5042579;28;20210;-73
2021/04/07 00:45:03;;;;;;;11.68;1.90;;;4.00;96.80;;;;;;5052409;28;20867;-74
2021/04/07 00:47:30;;;;;;;15.18;2.30;;;4.00;96.70;;;;;;5046272;28;20205;-74
2021/04/07 00:49:56;;;;;;;12.32;1.45;;;4.00;96.60;;;;;;5057003;28;20291;-74
2021/04/07 00:52:24;;;;;;;13.77;1.90;;;3.90;96.70;;;;;;5047464;28;20206;-74
2021/04/07 00:54:52;;;;;;;12.70;1.75;;;3.90;96.80;;;;;;5044055;28;20293;-74
2021/04/07 00:57:20;;;;;;;15.30;1.88;;;3.80;96.90;;;;;;5055879;28;20203;-74
2021/04/07 00:59:46;;;;;;;11.18;1.98;;;3.80;97.10;;;;;;5041061;28;20222;-74
2021/04/07 01:02:15;;;;;;;20.45;2.25;;;3.80;97.20;;;;;;5044854;28;20219;-75
2021/04/07 01:04:42;;;;;;;18.13;2.20;;;3.80;97.40;;;;;;5064991;28;20723;-74
2021/04/07 01:07:10;;;;;;;16.55;2.22;;;3.80;97.50;;;;;;5062152;28;20206;-74
2021/04/07 01:09:37;;;;;;;13.80;2.40;;;3.80;97.60;;;;;;5054878;28;20202;-74
2021/04/07 01:12:04;;;;;;;17.58;2.63;;;3.70;97.70;;;;;;5062113;28;20198;-73
2021/04/07 01:14:31;;;;;;;21.27;2.50;;;3.70;97.80;;;;;;5063624;28;20202;-76
2021/04/07 01:16:58;;;;;;;23.17;3.53;;;3.70;97.90;;;;;;5037439;28;20203;-75
2021/04/07 01:19:25;;;;;;;16.63;2.50;;;3.80;98.10;;;;;;5065795;28;20289;-75
2021/04/07 01:21:53;;;;;;;16.27;2.45;;;3.70;98.20;;;;;;5044538;28;20294;-74
2021/04/07 01:24:20;;;;;;;13.43;2.53;;;3.80;98.40;;;;;;5056423;28;20225;-73
2021/04/07 01:26:47;;;;;;;9.68;1.65;;;3.80;98.50;;;;;;5062875;28;20206;-74
2021/04/07 01:29:14;;;;;;;12.95;2.35;;;3.80;98.30;;;;;;5060650;28;20427;-73
2021/04/07 01:31:44;;;;;;;18.88;2.65;;;3.90;99.90;;;;;;5059759;28;20429;-74
2021/04/07 01:34:18;;;;;;;17.90;2.67;;;3.90;99.90;;;;;;5044901;28;20427;-74
2021/04/07 01:36:44;;;;;;;26.02;2.85;;;3.90;99.90;;;;;;5060865;28;20435;-75
2021/04/07 01:39:10;;;;;;;19.08;3.15;;;3.90;99.90;;;;;;5059428;28;20451;-72
2021/04/07 01:41:39;;;;;;;23.40;3.42;;;3.90;99.90;;;;;;5053700;28;20409;-72
2021/04/07 01:44:07;;;;;;;29.13;3.88;;;3.90;99.90;;;;;;5058128;28;20416;-73
2021/04/07 01:46:34;;;;;;;26.03;4.53;;;3.90;99.90;;;;;;5062436;28;20429;-73
2021/04/07 01:49:01;;;;;;;29.95;4.15;;;3.90;99.90;;;;;;5048626;28;20436;-73
2021/04/07 01:51:27;;;;;;;32.80;4.40;;;4.00;99.90;;;;;;5058720;28;20485;-73
2021/04/07 01:53:59;;;;;;;32.33;4.25;;;4.10;99.90;;;;;;5062300;28;20506;-74
2021/04/07 01:56:26;;;;;;;32.60;4.57;;;4.10;99.90;;;;;;5063354;28;20429;-74
2021/04/07 01:59:01;;;;;;;33.60;4.97;;;4.20;99.90;;;;;;5062579;28;20423;-74
2021/04/07 02:01:28;;;;;;;31.08;4.68;;;4.30;99.90;;;;;;5061124;28;20415;-73
2021/04/07 02:03:54;;;;;;;30.90;4.33;;;4.40;99.90;;;;;;5062152;28;20423;-73
2021/04/07 02:06:21;;;;;;;20.30;3.75;;;4.50;99.90;;;;;;5063928;28;20807;-73
2021/04/07 02:08:48;;;;;;;26.40;3.83;;;4.50;99.90;;;;;;5053387;28;20409;-73
2021/04/07 02:11:15;;;;;;;32.70;4.63;;;4.50;99.90;;;;;;5040527;28;20492;-72
2021/04/07 02:13:41;;;;;;;36.65;4.75;;;4.60;99.90;;;;;;5061562;28;20431;-72
2021/04/07 02:16:13;;;;;;;24.00;3.88;;;4.70;99.90;;;;;;5054392;28;20466;-74
2021/04/07 02:18:40;;;;;;;19.70;3.40;;;4.70;99.90;;;;;;5056750;28;20462;-74
2021/04/07 02:21:08;;;;;;;20.88;3.33;;;4.70;99.90;;;;;;5055535;28;20432;-74
2021/04/07 02:23:35;;;;;;;22.05;3.60;;;4.70;99.90;;;;;;5050126;28;20431;-76
2021/04/07 02:26:03;;;;;;;23.98;3.05;;;4.70;99.90;;;;;;5056654;28;20206;-75
2021/04/07 02:28:29;;;;;;;19.10;2.92;;;4.50;99.90;;;;;;5066073;28;20198;-75
2021/04/07 02:30:56;;;;;;;27.45;2.67;;;4.40;99.90;;;;;;5062345;28;20199;-75
2021/04/07 02:33:23;;;;;;;15.48;2.60;;;4.30;99.90;;;;;;5056850;28;20636;-74
2021/04/07 02:35:50;;;;;;;10.05;1.80;;;4.20;99.90;;;;;;5048328;28;20202;-75
2021/04/07 02:38:16;;;;;;;11.50;1.90;;;4.00;99.90;;;;;;5038844;28;20265;-75
2021/04/07 02:40:42;;;;;;;13.52;1.80;;;3.90;99.90;;;;;;5063832;28;20232;-74
2021/04/07 02:43:09;;;;;;;14.10;2.00;;;3.70;99.90;;;;;;5062526;28;20227;-75
2021/04/07 02:45:35;;;;;;;16.52;2.03;;;3.50;99.90;;;;;;5058837;28;20202;-74
2021/04/07 02:48:02;;;;;;;22.75;2.58;;;3.30;99.90;;;;;;5048750;28;20298;-75
2021/04/07 02:50:30;;;;;;;16.85;1.92;;;3.30;99.90;;;;;;5058651;28;20233;-75
2021/04/07 02:52:56;;;;;;;15.93;2.38;;;3.20;99.90;;;;;;5047608;28;20207;-74
2021/04/07 02:55:23;;;;;;;18.38;2.28;;;3.20;99.90;;;;;;5066491;28;20653;-75
2021/04/07 02:57:49;;;;;;;19.08;2.28;;;3.10;99.90;;;;;;5064602;28;20214;-74
2021/04/07 03:00:17;;;;;;;18.02;2.58;;;3.10;99.90;;;;;;5049466;28;20284;-74
2021/04/07 03:02:43;;;;;;;17.13;2.03;;;3.10;99.90;;;;;;5065194;28;20257;-75
2021/04/07 03:05:11;;;;;;;19.55;2.15;;;3.10;99.90;;;;;;5046630;28;20210;-75
2021/04/07 03:07:42;;;;;;;13.90;1.98;;;3.00;99.90;;;;;;5037424;28;20245;-75
2021/04/07 03:10:10;;;;;;;20.38;2.10;;;2.90;99.90;;;;;;5046646;28;20681;-75
2021/04/07 03:12:36;;;;;;;28.08;2.65;;;2.90;99.90;;;;;;5069317;28;20667;-76
2021/04/07 03:15:04;;;;;;;18.90;2.92;;;2.80;99.90;;;;;;5062901;28;20211;-76
2021/04/07 03:17:30;;;;;;;21.05;2.65;;;2.80;99.90;;;;;;5068339;28;20199;-76
2021/04/07 03:19:56;;;;;;;13.60;1.75;;;2.80;99.90;;;;;;5067699;28;20215;-76
2021/04/07 03:22:23;;;;;;;16.13;1.83;;;2.80;99.90;;;;;;5046672;28;20917;-76
2021/04/07 03:24:50;;;;;;;17.73;1.73;;;2.70;99.90;;;;;;5059278;28;20203;-76
2021/04/07 03:27:17;;;;;;;15.68;2.35;;;2.70;99.90;;;;;;5057344;28;20195;-75
2021/04/07 03:29:43;;;;;;;22.50;2.67;;;2.60;99.90;;;;;;5065480;28;20687;-76
2021/04/07 03:32:09;;;;;;;21.13;2.05;;;2.60;99.90;;;;;;5069361;28;20282;-75
2021/04/07 03:34:36;;;;;;;16.60;2.30;;;2.60;99.90;;;;;;5042944;28;20425;-76
2021/04/07 03:37:02;;;;;;;14.77;2.30;;;2.50;99.90;;;;;;5061628;28;20195;-75
2021/04/07 03:39:29;;;;;;;19.55;2.97;;;2.50;99.90;;;;;;5065909;28;20245;-74
2021/04/07 03:41:56;;;;;;;22.63;2.85;;;2.50;99.90;;;;;;5059309;28;20274;-74
2021/04/07 03:44:22;;;;;;;23.20;3.13;;;2.50;99.90;;;;;;5045775;28;20550;-76
2021/04/07 03:46:53;;;;;;;26.90;3.65;;;2.50;99.90;;;;;;5062776;28;20286;-76
2021/04/07 03:49:19;;;;;;;18.05;2.75;;;2.50;99.90;;;;;;5062100;28;20667;-76
2021/04/07 03:51:46;;;;;;;22.67;2.90;;;2.50;99.90;;;;;;5068200;28;20203;-76
2021/04/07 03:54:12;;;;;;;23.52;3.40;;;2.40;99.90;;;;;;5064177;28;20214;-76
2021/04/07 03:56:39;;;;;;;28.42;2.88;;;2.50;99.90;;;;;;5058470;28;20213;-75
2021/04/07 03:59:07;;;;;;;22.63;3.20;;;2.50;99.90;;;;;;5064215;28;20237;-76
2021/04/07 04:01:33;;;;;;;31.95;3.20;;;2.50;99.90;;;;;;5066381;28;20209;-76
2021/04/07 04:03:59;;;;;;;33.38;3.65;;;2.60;99.90;;;;;;5048460;28;20215;-77
2021/04/07 04:06:26;;;;;;;23.38;3.85;;;2.70;99.90;;;;;;5056581;28;20199;-74
2021/04/07 04:08:52;;;;;;;35.20;4.43;;;2.70;99.90;;;;;;5064577;28;20664;-75
2021/04/07 04:11:19;;;;;;;36.33;3.63;;;2.80;99.90;;;;;;5064736;28;20203;-74
2021/04/07 04:13:45;;;;;;;47.13;3.95;;;2.90;99.90;;;;;;5062275;28;20200;-75
2021/04/07 04:16:13;;;;;;;29.98;3.67;;;3.00;99.90;;;;;;5066893;28;20568;-75
2021/04/07 04:18:40;;;;;;;27.25;3.67;;;3.10;99.90;;;;;;5058214;28;20651;-76
2021/04/07 04:21:06;;;;;;;45.63;4.85;;;3.20;99.90;;;;;;5065257;28;20272;-75
2021/04/07 04:23:32;;;;;;;45.15;4.65;;;3.20;99.90;;;;;;5066972;28;20713;-75
2021/04/07 04:25:59;;;;;;;53.53;5.78;;;3.30;99.90;;;;;;5046745;28;20852;-75
2021/04/07 04:28:25;;;;;;;47.30;5.68;;;3.30;99.90;;;;;;5061459;28;20202;-75
2021/04/07 04:30:52;;;;;;;54.08;5.78;;;3.40;99.90;;;;;;5065826;28;20195;-74
2021/04/07 04:33:19;;;;;;;44.60;4.75;;;3.40;99.90;;;;;;5067013;28;20203;-74
2021/04/07 04:35:45;;;;;;;45.70;4.82;;;3.50;99.90;;;;;;5055976;28;20249;-74
2021/04/07 04:38:13;;;;;;;50.22;5.18;;;3.50;99.90;;;;;;5044507;28;20218;-76
2021/04/07 04:40:39;;;;;;;57.90;5.55;;;3.50;99.90;;;;;;5042070;28;20229;-75
2021/04/07 04:43:06;;;;;;;66.40;6.10;;;3.60;99.90;;;;;;5063016;28;20714;-74
2021/04/07 04:45:35;;;;;;;49.17;4.95;;;3.60;99.90;;;;;;5066545;28;20207;-74
2021/04/07 04:48:02;;;;;;;43.78;5.15;;;3.60;99.90;;;;;;5040099;28;20207;-76
2021/04/07 04:50:29;;;;;;;63.35;5.53;;;3.70;99.90;;;;;;5062568;28;20205;-76
2021/04/07 04:52:56;;;;;;;60.13;6.82;;;3.70;99.90;;;;;;5065496;28;20268;-76
2021/04/07 04:55:22;;;;;;;48.67;5.75;;;3.70;99.90;;;;;;5057609;28;20205;-75
2021/04/07 04:57:49;;;;;;;55.58;5.85;;;3.80;99.90;;;;;;5063970;28;20202;-75
2021/04/07 05:00:16;;;;;;;56.03;5.13;;;3.80;99.90;;;;;;5042791;28;20226;-74
2021/04/07 05:02:42;;;;;;;69.90;5.63;;;3.90;99.90;;;;;;5060644;28;20206;-75
2021/04/07 05:05:10;;;;;;;53.30;5.35;;;3.90;99.90;;;;;;5062686;28;20198;-76
2021/04/07 05:07:37;;;;;;;48.17;5.43;;;3.90;99.90;;;;;;5047638;28;20203;-75
2021/04/07 05:10:05;;;;;;;60.65;6.20;;;4.00;99.90;;;;;;5046018;28;20203;-75
2021/04/07 05:12:31;;;;;;;46.47;5.70;;;4.00;99.90;;;;;;5063351;28;20226;-75
2021/04/07 05:14:58;;;;;;;61.05;6.00;;;4.00;99.90;;;;;;5049457;28;20198;-75
2021/04/07 05:17:25;;;;;;;67.43;6.85;;;4.10;99.90;;;;;;5062842;28;20207;-74
2021/04/07 05:19:51;;;;;;;65.28;7.63;;;4.10;99.90;;;;;;5049368;28;20232;-76
2021/04/07 05:22:18;;;;;;;56.15;6.47;;;4.10;99.90;;;;;;5064267;28;20732;-73
2021/04/07 05:24:45;;;;;;;69.55;7.07;;;4.10;99.90;;;;;;5065952;28;20686;-73
2021/04/07 05:27:11;;;;;;;90.47;8.35;;;4.20;99.90;;;;;;5060090;28;20203;-75
2021/04/07 05:29:38;;;;;;;68.28;7.55;;;4.20;99.90;;;;;;5063348;28;20191;-74
2021/04/07 05:32:05;;;;;;;76.53;7.50;;;4.20;99.90;;;;;;5060578;28;20211;-73
2021/04/07 05:34:32;;;;;;;68.53;7.25;;;4.20;99.90;;;;;;5065521;28;20212;-74
2021/04/07 05:36:58;;;;;;;66.93;6.60;;;4.30;99.90;;;;;;5060858;28;20637;-74
2021/04/07 05:39:25;;;;;;;72.30;7.28;;;4.30;99.90;;;;;;5062533;28;20702;-74
2021/04/07 05:41:53;;;;;;;72.95;6.97;;;4.30;99.90;;;;;;5062360;28;20267;-78
2021/04/07 05:44:19;;;;;;;56.78;7.00;;;4.40;99.90;;;;;;5055336;28;20201;-74
2021/04/07 05:46:46;;;;;;;57.28;7.65;;;4.40;99.90;;;;;;5066474;28;20202;-74
2021/04/07 05:49:12;;;;;;;69.75;7.43;;;4.40;99.90;;;;;;5066359;28;20194;-74
2021/04/07 05:51:38;;;;;;;60.25;6.57;;;4.40;99.90;;;;;;5059963;28;20677;-75
2021/04/07 05:54:05;;;;;;;64.40;7.07;;;4.50;99.90;;;;;;5058490;28;20866;-75
2021/04/07 05:56:32;;;;;;;60.25;7.65;;;4.50;99.90;;;;;;5046862;28;20210;-74
2021/04/07 05:58:59;;;;;;;77.03;7.53;;;4.50;99.90;;;;;;5057406;28;20915;-75
2021/04/07 06:01:26;;;;;;;68.03;8.07;;;4.60;99.90;;;;;;5045055;28;20220;-75
2021/04/07 06:03:53;;;;;;;75.82;7.70;;;4.60;99.90;;;;;;5040491;28;20217;-74
2021/04/07 06:06:20;;;;;;;61.97;7.40;;;4.60;99.90;;;;;;5046363;28;20296;-74
2021/04/07 06:08:47;;;;;;;61.35;7.55;;;4.70;99.90;;;;;;5045490;28;20298;-75
2021/04/07 06:11:13;;;;;;;55.03;5.90;;;4.70;99.90;;;;;;5063560;28;20249;-74
2021/04/07 06:13:40;;;;;;;60.40;5.82;;;4.80;99.90;;;;;;5059922;28;20204;-73
2021/04/07 06:16:07;;;;;;;66.18;6.70;;;4.80;99.90;;;;;;5062476;28;20289;-74
2021/04/07 06:18:34;;;;;;;45.83;5.93;;;4.90;99.90;;;;;;5064304;28;20211;-73
2021/04/07 06:21:00;;;;;;;47.25;6.32;;;4.90;99.90;;;;;;5041157;28;20223;-73
2021/04/07 06:23:27;;;;;;;54.35;6.80;;;4.90;99.90;;;;;;5060543;28;20203;-74
2021/04/07 06:25:53;;;;;;;48.95;5.63;;;5.00;99.90;;;;;;5046515;28;20263;-73
2021/04/07 06:28:19;;;;;;;46.42;6.18;;;5.00;99.90;;;;;;5061530;28;20210;-73
2021/04/07 06:30:46;;;;;;;40.45;6.20;;;5.00;99.90;;;;;;5065323;28;20233;-76
2021/04/07 06:33:16;;;;;;;50.42;5.70;;;5.00;99.90;;;;;;5065218;28;20281;-74
2021/04/07 06:35:45;;;;;;;49.88;6.70;;;5.10;99.90;;;;;;5061230;28;20215;-74
2021/04/07 06:38:12;;;;;;;35.67;5.57;;;5.10;99.90;;;;;;5067545;28;20198;-73
2021/04/07 06:40:38;;;;;;;43.63;5.78;;;5.10;99.90;;;;;;5038312;28;20651;-74
2021/04/07 06:43:05;;;;;;;55.22;6.07;;;5.20;99.90;;;;;;5040990;28;20198;-74
2021/04/07 06:45:33;;;;;;;54.58;5.63;;;5.20;99.90;;;;;;5036897;28;20702;-74
2021/04/07 06:48:00;;;;;;;39.28;5.38;;;5.20;99.90;;;;;;5066003;28;20206;-75
2021/04/07 06:50:28;;;;;;;45.03;6.97;;;5.30;99.90;;;;;;5062095;28;20476;-73
2021/04/07 06:52:58;;;;;;;44.55;6.95;;;5.50;99.90;;;;;;5038953;28;20416;-74
2021/04/07 06:55:24;;;;;;;42.67;6.72;;;5.70;99.90;;;;;;5058313;28;20430;-74
2021/04/07 06:57:52;;;;;;;46.53;6.80;;;5.90;99.90;;;;;;5042431;28;20423;-73
2021/04/07 07:00:19;;;;;;;44.65;6.55;;;6.10;99.90;;;;;;5059815;28;20871;-74
2021/04/07 07:02:45;;;;;;;47.72;6.80;;;6.20;99.90;;;;;;5057666;28;20419;-74
2021/04/07 07:05:15;;;;;;;39.50;6.75;;;6.30;99.90;;;;;;5058425;28;20408;-73
2021/04/07 07:07:43;;;;;;;42.75;6.53;;;6.40;99.90;;;;;;5043316;28;20468;-73
2021/04/07 07:10:13;;;;;;;49.75;7.03;;;6.40;99.90;;;;;;5058468;28;20405;-74
2021/04/07 07:12:40;;;;;;;54.20;7.65;;;6.50;99.90;;;;;;5061722;28;20520;-73
2021/04/07 07:15:07;;;;;;;45.28;6.80;;;6.50;99.90;;;;;;5053794;28;20454;-73
2021/04/07 07:17:35;;;;;;;42.37;6.50;;;6.60;99.90;;;;;;5058393;28;20470;-74
2021/04/07 07:20:03;;;;;;;43.88;7.30;;;6.70;99.90;;;;;;5060005;28;20415;-74
2021/04/07 07:22:31;;;;;;;46.67;7.18;;;6.70;99.90;;;;;;5058796;28;20423;-74
2021/04/07 07:24:59;;;;;;;47.20;7.22;;;6.70;99.90;;;;;;5061327;28;20415;-74
2021/04/07 07:27:37;;;;;;;50.37;7.27;;;6.80;99.90;;;;;;5056556;28;20937;-74
2021/04/07 07:30:06;;;;;;;43.17;8.50;;;6.80;99.90;;;;;;5052840;28;21213;-75
2021/04/07 07:32:35;;;;;;;43.15;6.97;;;6.90;99.90;;;;;;5046940;28;20425;-75
2021/04/07 07:35:11;;;;;;;47.60;7.18;;;6.90;99.90;;;;;;5062829;28;20924;-74
2021/04/07 07:37:38;;;;;;;47.92;7.00;;;7.00;99.90;;;;;;5049688;28;20466;-78
2021/04/07 07:40:08;;;;;;;47.60;7.50;;;7.00;99.90;;;;;;5063195;28;20926;-74
2021/04/07 07:42:35;;;;;;;45.55;6.90;;;7.00;99.90;;;;;;5061698;28;20428;-75
2021/04/07 07:45:02;;;;;;;39.58;6.53;;;7.00;99.90;;;;;;5066414;28;20424;-75
2021/04/07 07:47:31;;;;;;;45.88;7.20;;;7.10;99.90;;;;;;5062483;28;20432;-75
2021/04/07 07:49:59;;;;;;;40.15;6.80;;;7.10;99.90;;;;;;5040470;28;20431;-74
2021/04/07 07:52:28;;;;;;;44.05;7.20;;;7.10;99.90;;;;;;5064266;28;21089;-75
2021/04/07 07:54:54;;;;;;;45.22;6.32;;;7.20;99.90;;;;;;5061251;28;20422;-75
2021/04/07 07:57:22;;;;;;;41.85;6.50;;;7.20;99.90;;;;;;5062722;28;20760;-75
2021/04/07 07:59:48;;;;;;;38.92;6.60;;;7.30;99.90;;;;;;5064026;28;20497;-74
2021/04/07 08:02:16;;;;;;;40.88;6.70;;;7.40;99.90;;;;;;5046328;28;20494;-76
2021/04/07 08:04:46;;;;;;;41.35;6.50;;;7.40;99.90;;;;;;5060780;28;20427;-75
2021/04/07 08:07:14;;;;;;;41.20;6.95;;;7.50;99.90;;;;;;5064531;28;20958;-75
2021/04/07 08:09:41;;;;;;;52.13;7.00;;;7.50;99.90;;;;;;5044454;28;21659;-74
2021/04/07 08:12:09;;;;;;;36.87;6.00;;;7.60;99.90;;;;;;5044831;28;20435;-75
2021/04/07 08:14:39;;;;;;;35.50;5.50;;;7.60;99.90;;;;;;5054857;28;20952;-74
2021/04/07 08:17:06;;;;;;;40.70;5.97;;;7.60;99.90;;;;;;5062268;28;21002;-74
2021/04/07 08:19:35;;;;;;;39.53;6.13;;;7.70;99.90;;;;;;5063990;28;20471;-74
2021/04/07 08:22:03;;;;;;;35.78;6.03;;;7.70;99.80;;;;;;5062444;28;20464;-74
2021/04/07 08:24:31;;;;;;;38.53;6.07;;;7.70;99.90;;;;;;5060402;28;20404;-73
2021/04/07 08:26:58;;;;;;;44.43;6.70;;;7.70;99.90;;;;;;5040999;28;20424;-74
2021/04/07 08:29:25;;;;;;;33.83;5.70;;;7.80;99.90;;;;;;5062407;28;20757;-74
2021/04/07 08:31:53;;;;;;;42.85;6.15;;;7.80;99.50;;;;;;5054632;28;20507;-75
2021/04/07 08:34:22;;;;;;;40.08;5.55;;;7.80;98.80;;;;;;5058401;28;20413;-76
2021/04/07 08:36:49;;;;;;;38.42;6.32;;;7.80;98.40;;;;;;5044150;28;20416;-75
2021/04/07 08:39:17;;;;;;;36.20;5.87;;;7.80;98.30;;;;;;5059451;28;20779;-76
2021/04/07 08:41:46;;;;;;;32.60;5.50;;;7.80;98.30;;;;;;5069076;28;20438;-75
2021/04/07 08:44:13;;;;;;;37.28;6.07;;;7.90;98.20;;;;;;5061394;28;20421;-74
2021/04/07 08:46:41;;;;;;;45.20;7.17;;;7.90;97.90;;;;;;5040462;28;20413;-75
2021/04/07 08:49:09;;;;;;;39.92;6.07;;;8.00;97.90;;;;;;5061994;28;20907;-72
2021/04/07 08:51:36;;;;;;;36.33;5.82;;;8.00;97.90;;;;;;5068067;28;20455;-73
2021/04/07 08:54:03;;;;;;;43.05;6.47;;;8.10;97.50;;;;;;5058994;28;20852;-73
2021/04/07 08:56:32;;;;;;;37.65;5.93;;;8.10;97.20;;;;;;5054577;28;20425;-73
2021/04/07 08:59:00;;;;;;;35.63;6.23;;;8.20;96.80;;;;;;5062281;28;20871;-74
2021/04/07 09:01:33;;;;;;;34.88;5.82;;;8.20;96.70;;;;;;5039809;28;20421;-74
2021/04/07 09:04:05;;;;;;;37.92;5.72;;;8.20;96.00;;;;;;5064827;28;20481;-74
2021/04/07 09:06:32;;;;;;;34.55;5.93;;;8.30;95.50;;;;;;5041574;28;20465;-73
2021/04/07 09:08:59;;;;;;;27.85;4.80;;;8.30;95.40;;;;;;5035974;28;20419;-74
2021/04/07 09:11:28;;;;;;;25.55;5.00;;;8.30;94.90;;;;;;5060751;28;20852;-75
2021/04/07 09:14:00;;;;;;;27.63;4.80;;;8.40;94.50;;;;;;5055540;28;20420;-73
2021/04/07 09:16:34;;;;;;;32.17;5.05;;;8.40;94.00;;;;;;5063398;28;20429;-74
2021/04/07 09:19:16;;;;;;;33.15;5.32;;;8.50;93.40;;;;;;5058498;28;20400;-75
2021/04/07 09:21:58;;;;;;;32.30;5.35;;;8.50;93.50;;;;;;5063512;28;20456;-75
2021/04/07 09:24:27;;;;;;;32.90;5.32;;;8.50;93.70;;;;;;5038457;28;20451;-73
2021/04/07 09:26:54;;;;;;;28.02;4.30;;;8.50;93.50;;;;;;5061989;28;20793;-74
2021/04/07 09:29:21;;;;;;;35.33;5.88;;;8.50;93.60;;;;;;5050999;28;20431;-75
2021/04/07 09:31:50;;;;;;;36.80;5.60;;;8.50;93.90;;;;;;5054563;28;20459;-74
2021/04/07 09:34:17;;;;;;;35.70;5.18;;;8.40;94.10;;;;;;5058096;28;20407;-75
2021/04/07 09:36:46;;;;;;;39.35;5.65;;;8.40;94.40;;;;;;5067000;28;20506;-73
2021/04/07 09:39:15;;;;;;;35.95;5.50;;;8.40;93.90;;;;;;5058820;28;20413;-73
2021/04/07 09:41:44;;;;;;;34.77;5.53;;;8.30;93.90;;;;;;5038764;28;20488;-73
2021/04/07 09:44:13;;;;;;;32.00;5.60;;;8.30;93.20;;;;;;5058751;28;20506;-74
2021/04/07 09:46:40;;;;;;;32.53;5.27;;;8.20;93.30;;;;;;5065707;28;20414;-74
2021/04/07 09:49:07;;;;;;;32.85;5.25;;;8.20;93.70;;;;;;5046885;28;21070;-74
2021/04/07 09:51:35;;;;;;;32.35;5.38;;;8.20;93.80;;;;;;5060231;28;20407;-73
2021/04/07 09:54:15;;;;;;;27.33;4.97;;;8.20;94.30;;;;;;5065146;28;20910;-73
2021/04/07 09:56:55;;;;;;;30.52;4.78;;;8.20;95.10;;;;;;5059880;28;20997;-74
2021/04/07 09:59:38;;;;;;;29.00;4.68;;;8.20;94.80;;;;;;5059962;28;20423;-72
2021/04/07 10:02:06;;;;;;;32.80;5.00;;;8.30;94.00;;;;;;5036905;28;20495;-73
2021/04/07 10:04:34;;;;;;;26.13;4.63;;;8.20;93.60;;;;;;5057047;28;20490;-73
2021/04/07 10:07:14;;;;;;;29.83;4.93;;;8.30;93.60;;;;;;5056711;28;20893;-73
2021/04/07 10:09:43;;;;;;;32.38;5.18;;;8.30;93.50;;;;;;5052215;28;20423;-74
2021/04/07 10:12:11;;;;;;;23.98;4.78;;;8.40;93.10;;;;;;5055437;28;20515;-74
2021/04/07 10:14:38;;;;;;;29.27;5.18;;;8.50;92.60;;;;;;5056219;28;20995;-73
2021/04/07 10:17:12;;;;;;;26.83;4.75;;;8.50;92.50;;;;;;5043638;28;20451;-75
2021/04/07 10:19:38;;;;;;;23.95;4.20;;;8.60;92.10;;;;;;5051367;28;20955;-75
2021/04/07 10:22:13;;;;;;;25.42;4.35;;;8.60;91.80;;;;;;5059337;28;20430;-74
2021/04/07 10:24:40;;;;;;;26.42;4.35;;;8.60;91.50;;;;;;5059230;28;20428;-74
2021/04/07 10:27:08;;;;;;;30.02;4.25;;;8.60;91.20;;;;;;5062551;28;21079;-74
2021/04/07 10:29:35;;;;;;;20.33;3.85;;;8.60;90.80;;;;;;5054284;28;20427;-73
2021/04/07 10:32:01;;;;;;;22.08;4.00;;;8.60;90.60;;;;;;5060010;28;20412;-74
2021/04/07 10:34:32;;;;;;;21.30;3.17;;;8.60;90.20;;;;;;5058938;28;20423;-74
2021/04/07 10:36:58;;;;;;;22.58;3.42;;;8.70;89.80;;;;;;5065233;28;20523;-75
2021/04/07 10:39:26;;;;;;;24.73;3.90;;;8.70;90.20;;;;;;5055652;28;20821;-73
2021/04/07 10:41:53;;;;;;;26.70;4.60;;;8.80;90.20;;;;;;5058146;28;20427;-74
2021/04/07 10:44:25;;;;;;;28.85;4.10;;;8.80;90.50;;;;;;5059555;28;20953;-73
2021/04/07 10:46:52;;;;;;;23.10;3.95;;;8.90;90.30;;;;;;5051307;28;20441;-73
2021/04/07 10:49:19;;;;;;;23.73;3.60;;;8.90;90.60;;;;;;5044687;28;20451;-73
2021/04/07 10:52:00;;;;;;;27.33;3.93;;;8.90;90.60;;;;;;5059938;28;20407;-74
2021/04/07 10:54:27;;;;;;;21.27;3.83;;;9.00;90.30;;;;;;5059837;28;20419;-73
2021/04/07 10:57:01;;;;;;;19.95;3.53;;;9.10;88.80;;;;;;5058904;28;20413;-74
2021/04/07 10:59:29;;;;;;;20.55;3.50;;;9.20;88.20;;;;;;5057177;28;20423;-75
2021/04/07 11:01:56;;;;;;;20.10;3.50;;;9.20;86.70;;;;;;5060007;28;20827;-74
2021/04/07 11:04:22;;;;;;;19.77;3.50;;;9.30;86.30;;;;;;5057144;28;20415;-74
2021/04/07 11:06:55;;;;;;;19.88;3.38;;;9.30;87.10;;;;;;5061795;28;20426;-74
2021/04/07 11:09:25;;;;;;;20.57;3.27;;;9.40;88.00;;;;;;5056309;28;20466;-74
2021/04/07 11:11:53;;;;;;;23.63;4.15;;;9.40;88.50;;;;;;5055310;28;20420;-76
2021/04/07 11:14:21;;;;;;;18.97;3.83;;;9.40;89.30;;;;;;5062230;28;20444;-76
2021/04/07 11:16:55;;;;;;;21.73;3.40;;;9.40;90.00;;;;;;5064911;28;20490;-73
2021/04/07 11:19:21;;;;;;;18.67;3.20;;;9.40;88.20;;;;;;5065556;28;20773;-74
2021/04/07 11:21:50;;;;;;;20.75;3.40;;;9.40;87.60;;;;;;5060424;28;20494;-74
2021/04/07 11:24:16;;;;;;;22.35;3.28;;;9.40;87.60;;;;;;5066618;28;20414;-73
2021/04/07 11:26:43;;;;;;;18.13;3.28;;;9.50;88.90;;;;;;5058539;28;20420;-74
2021/04/07 11:29:10;;;;;;;17.73;3.03;;;9.60;89.80;;;;;;5045237;28;20908;-74
2021/04/07 11:31:37;;;;;;;15.85;2.92;;;9.60;88.10;;;;;;5059661;28;20438;-74
2021/04/07 11:34:07;;;;;;;13.37;2.43;;;9.70;86.60;;;;;;5065219;28;20829;-74
2021/04/07 11:36:48;;;;;;;19.55;3.03;;;9.80;84.40;;;;;;5055587;28;20912;-74
2021/04/07 11:39:18;;;;;;;15.25;2.85;;;9.90;81.50;;;;;;5055778;28;20413;-72
2021/04/07 11:42:00;;;;;;;15.10;3.10;;;9.80;80.10;;;;;;5064806;28;20451;-75
2021/04/07 11:44:30;;;;;;;24.67;6.22;;;9.90;80.10;;;;;;5061135;28;20929;-74
2021/04/07 11:46:57;;;;;;;24.30;3.78;;;9.80;80.40;;;;;;5062594;28;20516;-74
2021/04/07 11:49:24;;;;;;;21.90;3.67;;;9.90;81.10;;;;;;5060733;28;20407;-74
2021/04/07 11:51:52;;;;;;;18.60;3.15;;;9.90;81.00;;;;;;5051477;28;20425;-73
2021/04/07 11:54:18;;;;;;;20.08;3.63;;;9.90;80.50;;;;;;5061681;28;20440;-74
2021/04/07 11:56:47;;;;;;;19.08;3.50;;;9.90;81.90;;;;;;5040397;28;20453;-76
2021/04/07 11:59:15;;;;;;;18.25;3.58;;;9.80;81.10;;;;;;5059159;28;20422;-73
2021/04/07 12:01:42;;;;;;;24.67;3.35;;;9.80;82.00;;;;;;5064301;28;20428;-73
2021/04/07 12:04:09;;;;;;;17.50;3.30;;;9.80;81.20;;;;;;5045913;28;20426;-76
2021/04/07 12:06:36;;;;;;;20.85;3.25;;;9.80;73.10;;;;;;5066970;28;20441;-73
2021/04/07 12:09:04;;;;;;;14.47;2.77;;;9.70;70.20;;;;;;5064740;28;20824;-73
2021/04/07 12:11:31;;;;;;;16.13;2.60;;;9.70;69.00;;;;;;5062922;28;20478;-73
2021/04/07 12:13:57;;;;;;;13.45;2.72;;;9.70;69.30;;;;;;5063654;28;20438;-75
2021/04/07 12:16:24;;;;;;;15.15;3.08;;;9.70;70.70;;;;;;5064478;28;20472;-74
2021/04/07 12:18:50;;;;;;;17.55;3.20;;;9.80;69.70;;;;;;5036993;28;20785;-76
2021/04/07 12:21:18;;;;;;;15.80;3.35;;;9.90;70.30;;;;;;5056087;28;20437;-75
2021/04/07 12:23:46;;;;;;;17.00;3.22;;;10.00;67.80;;;;;;5068685;28;20488;-76
2021/04/07 12:26:15;;;;;;;14.05;2.55;;;10.00;66.50;;;;;;5064066;28;20550;-74
2021/04/07 12:28:42;;;;;;;13.07;2.72;;;10.00;65.20;;;;;;5060529;28;20520;-75
2021/04/07 12:31:11;;;;;;;13.52;2.63;;;10.00;66.20;;;;;;5043379;28;20430;-75
2021/04/07 12:33:37;;;;;;;19.52;2.90;;;10.10;63.80;;;;;;5064506;28;20411;-75
2021/04/07 12:36:09;;;;;;;14.32;2.65;;;10.00;62.60;;;;;;5054807;28;20429;-75
2021/04/07 12:38:36;;;;;;;17.20;2.85;;;10.10;63.00;;;;;;5064014;28;20920;-75
2021/04/07 12:41:06;;;;;;;23.55;3.63;;;10.10;66.70;;;;;;5065675;28;20507;-74
2021/04/07 12:43:33;;;;;;;25.85;4.38;;;10.10;71.30;;;;;;5064798;28;20415;-75
2021/04/07 12:46:00;;;;;;;18.73;3.20;;;10.20;76.30;;;;;;5061622;28;21288;-76
2021/04/07 12:48:26;;;;;;;21.23;3.17;;;10.10;80.60;;;;;;5062827;28;20459;-73